createdAt,value
2018-04-24T00:00:18.002Z,97.72
2018-04-24T00:02:47.991Z,97.68
2018-04-24T00:05:18.021Z,97.71
2018-04-24T00:07:48.253Z,97.50
2018-04-24T00:10:17.721Z,97.86
2018-04-24T00:12:47.386Z,98.49
2018-04-24T00:15:18.115Z,98.68
2018-04-24T00:17:48.819Z,99.22
2018-04-24T00:20:20.457Z,100.00
2018-04-24T00:22:50.437Z,100.00
2018-04-24T00:25:20.392Z,100.00
2018-04-24T00:27:50.619Z,99.83
2018-04-24T00:30:20.522Z,99.82
2018-04-24T00:32:51.513Z,100.00
2018-04-24T00:35:21.602Z,100.00
2018-04-24T00:37:51.933Z,99.38
2018-04-24T00:40:21.887Z,99.21
2018-04-24T00:42:52.117Z,98.59
2018-04-24T00:45:22.405Z,99.41
2018-04-24T00:47:52.327Z,99.36
2018-04-24T00:50:22.368Z,99.32
2018-04-24T00:52:52.202Z,99.71
2018-04-24T00:55:22.268Z,100.00
2018-04-24T00:57:52.159Z,100.00
2018-04-24T01:00:22.713Z,100.00
2018-04-24T01:02:52.580Z,100.00
2018-04-24T01:05:22.562Z,100.00
2018-04-24T01:07:52.590Z,100.00
2018-04-24T01:10:23.700Z,100.00
2018-04-24T01:12:53.780Z,100.00
2018-04-24T01:15:23.773Z,100.00
2018-04-24T01:17:53.923Z,100.00
2018-04-24T01:20:24.663Z,99.81
2018-04-24T01:22:54.776Z,99.67
2018-04-24T01:25:24.480Z,98.21
2018-04-24T01:27:54.378Z,99.60
2018-04-24T01:30:24.379Z,98.95
2018-04-24T01:32:54.134Z,98.35
2018-04-24T01:35:24.125Z,98.12
2018-04-24T01:37:54.232Z,99.66
2018-04-24T01:40:24.255Z,100.00
2018-04-24T01:42:54.862Z,100.00
2018-04-24T01:45:25.028Z,100.00
2018-04-24T01:47:54.777Z,98.88
2018-04-24T01:50:24.787Z,98.36
2018-04-24T01:52:54.696Z,98.94
2018-04-24T01:55:24.583Z,100.00
2018-04-24T01:57:55.340Z,100.00
2018-04-24T02:00:25.912Z,99.49
2018-04-24T02:02:56.161Z,99.11
2018-04-24T02:05:26.429Z,98.92
2018-04-24T02:07:56.153Z,100.00
2018-04-24T02:10:25.963Z,100.00
2018-04-24T02:12:55.975Z,99.97
2018-04-24T02:15:26.153Z,100.00
2018-04-24T02:17:56.805Z,100.00
2018-04-24T02:20:26.678Z,100.00
2018-04-24T02:22:56.657Z,100.00
2018-04-24T02:25:26.645Z,100.00
2018-04-24T02:27:56.499Z,100.00
2018-04-24T02:30:26.390Z,100.00
2018-04-24T02:32:56.360Z,100.00
2018-04-24T02:35:26.663Z,100.00
2018-04-24T02:37:56.683Z,99.91
2018-04-24T02:40:30.426Z,100.00
2018-04-24T02:43:00.685Z,100.00
2018-04-24T02:45:31.157Z,100.00
2018-04-24T02:48:00.974Z,100.00
2018-04-24T02:50:31.116Z,100.00
2018-04-24T02:53:01.246Z,100.00
2018-04-24T02:55:31.175Z,100.00
2018-04-24T02:58:01.096Z,100.00
2018-04-24T03:00:31.127Z,100.00
2018-04-24T03:03:02.158Z,100.00
2018-04-24T03:05:32.260Z,100.00
2018-04-24T03:08:01.955Z,100.00
2018-04-24T03:10:32.070Z,100.00
2018-04-24T03:13:01.862Z,100.00
2018-04-24T03:15:31.843Z,100.00
2018-04-24T03:18:01.653Z,100.00
2018-04-24T03:20:32.511Z,100.00
2018-04-24T03:23:02.736Z,100.00
2018-04-24T03:25:32.617Z,100.00
2018-04-24T03:28:02.689Z,100.00
2018-04-24T03:30:32.912Z,100.00
2018-04-24T03:33:02.906Z,100.00
2018-04-24T03:35:32.970Z,100.00
2018-04-24T03:38:02.978Z,100.00
2018-04-24T03:40:32.921Z,100.00
2018-04-24T03:43:02.865Z,100.00
2018-04-24T03:45:33.021Z,100.00
2018-04-24T03:48:04.105Z,100.00
2018-04-24T03:50:34.111Z,100.00
2018-04-24T03:53:04.095Z,100.00
2018-04-24T03:55:34.258Z,99.91
2018-04-24T03:58:04.498Z,98.80
2018-04-24T04:00:34.609Z,98.37
2018-04-24T04:03:05.169Z,98.69
2018-04-24T04:05:35.080Z,99.75
2018-04-24T04:08:05.400Z,100.00
2018-04-24T04:10:35.441Z,100.00
2018-04-24T04:13:05.432Z,100.00
2018-04-24T04:15:35.509Z,100.00
2018-04-24T04:18:16.740Z,100.00
2018-04-24T04:20:59.274Z,100.00
2018-04-24T04:23:40.554Z,100.00
2018-04-24T04:26:10.627Z,100.00
2018-04-24T04:28:40.628Z,100.00
2018-04-24T04:31:11.410Z,100.00
2018-04-24T04:33:41.911Z,100.00
2018-04-24T04:36:12.249Z,100.00
2018-04-24T04:38:42.168Z,100.00
2018-04-24T04:41:12.852Z,100.00
2018-04-24T04:43:43.064Z,100.00
2018-04-24T04:46:13.245Z,100.00
2018-04-24T04:48:43.859Z,100.00
2018-04-24T04:51:13.933Z,100.00
2018-04-24T04:53:43.832Z,100.00
2018-04-24T04:56:14.029Z,100.00
2018-04-24T04:58:43.757Z,100.00
2018-04-24T05:01:13.899Z,100.00
2018-04-24T05:03:43.880Z,100.00
2018-04-24T05:06:13.916Z,100.00
2018-04-24T05:08:44.434Z,100.00
2018-04-24T05:11:14.478Z,100.00
2018-04-24T05:13:44.691Z,100.00
2018-04-24T05:16:14.740Z,100.00
2018-04-24T05:18:45.662Z,100.00
2018-04-24T05:21:15.695Z,100.00
2018-04-24T05:23:45.578Z,100.00
2018-04-24T05:26:15.826Z,100.00
2018-04-24T05:28:45.908Z,100.00
2018-04-24T05:31:15.866Z,100.00
2018-04-24T05:33:46.298Z,100.00
2018-04-24T05:36:16.213Z,100.00
2018-04-24T05:38:46.256Z,99.61
2018-04-24T05:41:16.242Z,99.40
2018-04-24T05:43:46.550Z,98.91
2018-04-24T05:46:17.293Z,98.17
2018-04-24T05:48:47.623Z,98.48
2018-04-24T05:51:18.462Z,97.31
2018-04-24T05:53:48.431Z,96.59
2018-04-24T05:56:18.975Z,96.49
2018-04-24T05:58:48.855Z,96.22
2018-04-24T06:01:20.756Z,95.24
2018-04-24T06:03:50.976Z,95.90
2018-04-24T06:06:21.116Z,95.19
2018-04-24T06:08:51.097Z,94.71
2018-04-24T06:11:21.832Z,93.90
2018-04-24T06:13:51.918Z,93.39
2018-04-24T06:16:22.008Z,93.11
2018-04-24T06:18:52.304Z,93.71
2018-04-24T06:21:22.508Z,92.07
2018-04-24T06:23:52.439Z,90.93
2018-04-24T06:26:22.652Z,88.46
2018-04-24T06:28:52.572Z,88.36
2018-04-24T06:31:23.245Z,88.01
2018-04-24T06:33:53.029Z,88.18
2018-04-24T06:36:22.932Z,87.97
2018-04-24T06:38:53.269Z,86.66
2018-04-24T06:41:23.739Z,86.54
2018-04-24T06:43:53.687Z,85.65
2018-04-24T06:46:23.610Z,85.24
2018-04-24T06:48:53.479Z,83.99
2018-04-24T06:51:23.785Z,85.32
2018-04-24T06:53:53.722Z,84.03
2018-04-24T06:56:24.433Z,82.65
2018-04-24T06:58:54.664Z,82.58
2018-04-24T07:01:25.063Z,81.82
2018-04-24T07:03:55.867Z,81.01
2018-04-24T07:06:25.892Z,81.33
2018-04-24T07:08:55.869Z,78.94
2018-04-24T07:11:28.976Z,81.13
2018-04-24T07:13:58.951Z,79.18
2018-04-24T07:16:29.416Z,79.09
2018-04-24T07:18:59.572Z,78.41
2018-04-24T07:21:30.901Z,78.90
2018-04-24T07:24:00.982Z,79.14
2018-04-24T07:26:31.474Z,79.07
2018-04-24T07:29:01.605Z,76.40
2018-04-24T07:31:31.954Z,75.38
2018-04-24T07:34:01.923Z,75.72
2018-04-24T07:36:31.890Z,74.18
2018-04-24T07:39:02.028Z,73.60
2018-04-24T07:41:32.036Z,75.00
2018-04-24T07:44:02.018Z,70.71
2018-04-24T07:46:33.276Z,69.88
2018-04-24T07:49:03.464Z,69.99
2018-04-24T07:51:33.889Z,69.29
2018-04-24T07:54:03.793Z,67.88
2018-04-24T07:56:34.536Z,68.46
2018-04-24T07:59:04.292Z,62.30
2018-04-24T08:01:34.543Z,63.24
2018-04-24T08:04:04.536Z,65.25
2018-04-24T08:06:34.488Z,67.10
2018-04-24T08:09:04.148Z,63.67
2018-04-24T08:11:34.834Z,66.58
2018-04-24T08:14:04.896Z,62.48
2018-04-24T08:16:34.780Z,64.01
2018-04-24T08:19:04.710Z,63.26
2018-04-24T08:21:34.723Z,61.46
2018-04-24T08:24:04.824Z,61.58
2018-04-24T08:26:34.862Z,62.24
2018-04-24T08:29:05.687Z,59.06
2018-04-24T08:31:35.806Z,56.64
2018-04-24T08:34:06.664Z,56.87
2018-04-24T08:36:36.514Z,58.28
2018-04-24T08:39:06.578Z,56.83
2018-04-24T08:41:37.399Z,56.74
2018-04-24T08:44:07.681Z,59.60
2018-04-24T08:46:37.582Z,57.10
2018-04-24T08:49:08.550Z,58.59
2018-04-24T08:51:38.423Z,58.79
2018-04-24T08:54:08.375Z,55.12
2018-04-24T08:56:38.386Z,57.47
2018-04-24T08:59:08.326Z,59.21
2018-04-24T09:01:38.995Z,55.12
2018-04-24T09:04:09.645Z,55.80
2018-04-24T09:06:39.816Z,55.36
2018-04-24T09:09:09.818Z,56.32
2018-04-24T09:11:39.766Z,55.77
2018-04-24T09:14:10.115Z,56.01
2018-04-24T09:16:40.707Z,56.50
2018-04-24T09:19:10.980Z,57.14
2018-04-24T09:21:41.220Z,54.90
2018-04-24T09:24:11.071Z,56.33
2018-04-24T09:26:41.351Z,51.43
2018-04-24T09:29:11.515Z,51.88
2018-04-24T09:31:44.563Z,52.81
2018-04-24T09:34:15.665Z,55.72
2018-04-24T09:36:45.995Z,51.65
2018-04-24T09:39:15.976Z,49.44
2018-04-24T09:41:45.838Z,52.39
2018-04-24T09:44:16.769Z,49.85
2018-04-24T09:46:46.785Z,50.76
2018-04-24T09:49:17.352Z,51.88
2018-04-24T09:51:47.167Z,50.40
2018-04-24T09:54:17.650Z,52.50
2018-04-24T09:56:47.901Z,53.33
2018-04-24T09:59:17.971Z,54.31
2018-04-24T10:01:49.165Z,50.55
2018-04-24T10:04:20.015Z,51.13
2018-04-24T10:06:50.485Z,51.50
2018-04-24T10:09:20.981Z,50.38
2018-04-24T10:11:50.878Z,51.62
2018-04-24T10:14:21.016Z,49.46
2018-04-24T10:16:51.099Z,49.03
2018-04-24T10:19:21.072Z,48.66
2018-04-24T10:21:51.250Z,48.57
2018-04-24T10:24:21.337Z,48.15
2018-04-24T10:26:51.814Z,50.16
2018-04-24T10:29:21.841Z,50.59
2018-04-24T10:31:54.110Z,49.63
2018-04-24T10:34:24.803Z,49.90
2018-04-24T10:36:54.555Z,49.79
2018-04-24T10:39:24.719Z,51.18
2018-04-24T10:41:55.749Z,49.41
2018-04-24T10:44:26.097Z,48.80
2018-04-24T10:46:56.643Z,49.29
2018-04-24T10:49:27.119Z,47.45
2018-04-24T10:51:57.278Z,47.82
2018-04-24T10:54:27.993Z,47.61
2018-04-24T10:56:58.104Z,47.09
2018-04-24T10:59:28.042Z,48.49
2018-04-24T11:01:58.194Z,46.03
2018-04-24T11:04:28.769Z,46.60
2018-04-24T11:06:59.114Z,50.00
2018-04-24T11:09:30.268Z,46.73
2018-04-24T11:12:00.256Z,47.85
2018-04-24T11:14:30.583Z,46.70
2018-04-24T11:17:00.695Z,48.30
2018-04-24T11:19:31.296Z,46.78
2018-04-24T11:22:01.519Z,48.35
2018-04-24T11:24:31.614Z,48.26
2018-04-24T11:27:02.134Z,48.10
2018-04-24T11:29:32.044Z,46.87
2018-04-24T11:32:02.313Z,45.42
2018-04-24T11:34:33.126Z,45.21
2018-04-24T11:37:03.939Z,46.38
2018-04-24T11:39:34.444Z,45.72
2018-04-24T11:42:05.273Z,46.13
2018-04-24T11:44:35.947Z,46.55
2018-04-24T11:47:06.937Z,44.21
2018-04-24T11:49:37.459Z,45.71
2018-04-24T11:52:12.850Z,44.91
2018-04-24T11:54:42.856Z,43.91
2018-04-24T11:57:12.976Z,44.25
2018-04-24T11:59:43.780Z,47.60
2018-04-24T12:02:14.167Z,47.17
2018-04-24T12:04:44.124Z,45.49
2018-04-24T12:07:14.182Z,48.26
2018-04-24T12:09:45.028Z,46.69
2018-04-24T12:12:16.488Z,48.09
2018-04-24T12:14:46.484Z,48.28
2018-04-24T12:17:16.237Z,46.17
2018-04-24T12:19:46.698Z,45.12
2018-04-24T12:22:16.578Z,45.55
2018-04-24T12:24:46.529Z,44.90
2018-04-24T12:27:17.372Z,47.32
2018-04-24T12:29:47.401Z,46.41
2018-04-24T12:32:17.260Z,46.80
2018-04-24T12:34:47.346Z,45.80
2018-04-24T12:37:17.748Z,46.52
2018-04-24T12:39:47.788Z,45.91
2018-04-24T12:42:17.828Z,46.13
2018-04-24T12:44:47.568Z,46.08
2018-04-24T12:47:17.681Z,46.71
2018-04-24T12:49:47.742Z,46.51
2018-04-24T12:52:19.281Z,46.78
2018-04-24T12:54:49.143Z,46.56
2018-04-24T12:57:19.922Z,45.30
2018-04-24T12:59:52.714Z,47.51
2018-04-24T13:02:23.008Z,46.22
2018-04-24T13:04:53.036Z,44.90
2018-04-24T13:07:23.142Z,45.44
2018-04-24T13:09:53.264Z,44.92
2018-04-24T13:12:23.376Z,44.30
2018-04-24T13:14:53.117Z,44.66
2018-04-24T13:17:23.308Z,47.24
2018-04-24T13:19:53.554Z,46.13
2018-04-24T13:22:24.891Z,45.85
2018-04-24T13:24:55.083Z,46.37
2018-04-24T13:27:25.505Z,45.25
2018-04-24T13:29:55.605Z,45.02
2018-04-24T13:32:25.666Z,42.09
2018-04-24T13:34:55.937Z,42.19
2018-04-24T13:37:26.288Z,42.03
2018-04-24T13:39:56.826Z,41.48
2018-04-24T13:42:26.955Z,42.04
2018-04-24T13:44:57.069Z,41.73
2018-04-24T13:47:27.130Z,41.88
2018-04-24T13:49:57.641Z,42.47
2018-04-24T13:52:28.721Z,42.23
2018-04-24T13:54:59.033Z,43.47
2018-04-24T13:57:28.967Z,43.17
2018-04-24T13:59:59.276Z,43.54
2018-04-24T14:02:30.691Z,45.06
2018-04-24T14:05:00.667Z,46.17
2018-04-24T14:07:31.399Z,45.32
2018-04-24T14:10:01.885Z,47.15
2018-04-24T14:12:32.387Z,46.65
2018-04-24T14:15:02.543Z,47.99
2018-04-24T14:17:32.664Z,48.92
2018-04-24T14:20:02.979Z,48.62
2018-04-24T14:22:33.651Z,47.86
2018-04-24T14:25:05.200Z,46.31
2018-04-24T14:27:35.452Z,46.51
2018-04-24T14:30:05.482Z,46.90
2018-04-24T14:32:36.064Z,49.00
2018-04-24T14:35:07.103Z,48.28
2018-04-24T14:37:37.305Z,48.79
2018-04-24T14:40:07.391Z,49.51
2018-04-24T14:42:37.985Z,48.84
2018-04-24T14:45:07.921Z,50.02
2018-04-24T14:47:38.311Z,48.44
2018-04-24T14:50:08.770Z,49.73
2018-04-24T14:52:39.112Z,48.45
2018-04-24T14:55:09.114Z,48.18
2018-04-24T14:57:39.413Z,50.09
2018-04-24T15:00:12.938Z,50.65
2018-04-24T15:02:43.997Z,51.06
2018-04-24T15:05:14.976Z,51.57
2018-04-24T15:07:45.366Z,53.58
2018-04-24T15:10:15.716Z,52.38
2018-04-24T15:12:46.093Z,51.63
2018-04-24T15:15:17.100Z,51.67
2018-04-24T15:17:47.470Z,50.87
2018-04-24T15:20:17.951Z,50.62
2018-04-24T15:22:47.779Z,50.90
2018-04-24T15:25:18.884Z,51.74
2018-04-24T15:27:50.122Z,51.83
2018-04-24T15:30:20.511Z,52.16
2018-04-24T15:32:50.784Z,50.65
2018-04-24T15:35:21.657Z,49.51
2018-04-24T15:37:52.101Z,49.90
2018-04-24T15:40:22.559Z,47.90
2018-04-24T15:42:53.116Z,49.93
2018-04-24T15:45:24.505Z,48.82
2018-04-24T15:47:55.380Z,49.70
2018-04-24T15:50:26.589Z,50.10
2018-04-24T15:52:56.797Z,50.74
2018-04-24T15:55:26.978Z,50.49
2018-04-24T15:57:57.400Z,51.04
2018-04-24T16:00:28.961Z,50.39
2018-04-24T16:02:59.451Z,50.84
2018-04-24T16:05:30.082Z,50.51
2018-04-24T16:08:02.042Z,51.27
2018-04-24T16:10:32.763Z,52.48
2018-04-24T16:13:03.446Z,53.27
2018-04-24T16:15:33.744Z,52.65
2018-04-24T16:18:04.409Z,52.09
2018-04-24T16:20:35.389Z,52.78
2018-04-24T16:23:05.801Z,53.03
2018-04-24T16:25:36.440Z,53.37
2018-04-24T16:28:07.139Z,52.96
2018-04-24T16:30:37.551Z,53.79
2018-04-24T16:33:08.021Z,54.23
2018-04-24T16:35:38.288Z,54.31
2018-04-24T16:38:08.534Z,54.80
2018-04-24T16:40:39.611Z,54.29
2018-04-24T16:43:10.221Z,54.21
2018-04-24T16:45:41.291Z,53.44
2018-04-24T16:48:12.017Z,53.47
2018-04-24T16:50:42.345Z,53.21
2018-04-24T16:53:12.699Z,53.08
2018-04-24T16:55:43.038Z,54.82
2018-04-24T16:58:13.372Z,55.39
2018-04-24T17:00:44.254Z,55.95
2018-04-24T17:03:15.404Z,56.86
2018-04-24T17:05:47.058Z,55.55
2018-04-24T17:08:22.230Z,52.59
2018-04-24T17:10:55.793Z,54.26
2018-04-24T17:13:26.142Z,54.72
2018-04-24T17:15:56.757Z,55.23
2018-04-24T17:18:27.563Z,55.73
2018-04-24T17:20:58.217Z,55.39
2018-04-24T17:23:28.706Z,56.43
2018-04-24T17:25:59.595Z,56.61
2018-04-24T17:28:29.986Z,57.94
2018-04-24T17:31:00.849Z,58.25
2018-04-24T17:33:31.959Z,58.54
2018-04-24T17:36:02.290Z,59.08
2018-04-24T17:38:32.669Z,58.80
2018-04-24T17:41:03.683Z,58.53
2018-04-24T17:43:34.342Z,58.47
2018-04-24T17:46:04.976Z,58.28
2018-04-24T17:48:35.419Z,59.49
2018-04-24T17:51:05.996Z,60.83
2018-04-24T17:53:36.348Z,60.85
2018-04-24T17:56:07.376Z,62.01
2018-04-24T17:58:37.886Z,61.51
2018-04-24T18:01:08.617Z,62.34
2018-04-24T18:03:39.143Z,61.55
2018-04-24T18:06:09.903Z,61.98
2018-04-24T18:08:40.214Z,62.46
2018-04-24T18:11:10.715Z,62.35
2018-04-24T18:13:41.176Z,62.68
2018-04-24T18:16:11.757Z,62.38
2018-04-24T18:18:42.478Z,62.57
2018-04-24T18:21:13.053Z,62.99
2018-04-24T18:23:43.546Z,62.54
2018-04-24T18:26:15.869Z,62.93
2018-04-24T18:28:46.590Z,62.43
2018-04-24T18:31:17.555Z,62.35
2018-04-24T18:33:47.892Z,62.16
2018-04-24T18:36:19.584Z,63.02
2018-04-24T18:38:51.465Z,62.46
2018-04-24T18:41:21.887Z,62.37
2018-04-24T18:43:52.516Z,63.68
2018-04-24T18:46:22.951Z,63.96
2018-04-24T18:48:54.057Z,64.02
2018-04-24T18:51:24.791Z,64.60
2018-04-24T18:53:55.305Z,64.14
2018-04-24T18:56:26.226Z,64.52
2018-04-24T18:58:56.917Z,65.45
2018-04-24T19:01:27.537Z,66.88
2018-04-24T19:03:58.462Z,67.40
2018-04-24T19:06:29.280Z,67.50
2018-04-24T19:08:59.621Z,68.03
2018-04-24T19:11:33.161Z,67.65
2018-04-24T19:14:09.625Z,69.88
2018-04-24T19:16:39.944Z,71.97
2018-04-24T19:19:15.582Z,70.44
2018-04-24T19:21:45.914Z,73.06
2018-04-24T19:24:21.614Z,74.08
2018-04-24T19:26:52.100Z,74.89
2018-04-24T19:29:22.776Z,74.42
2018-04-24T19:31:59.309Z,76.32
2018-04-24T19:34:31.187Z,77.88
2018-04-24T19:37:01.780Z,78.72
2018-04-24T19:39:37.781Z,80.21
2018-04-24T19:42:09.680Z,81.95
2018-04-24T19:44:40.142Z,83.54
2018-04-24T19:47:10.741Z,84.52
2018-04-24T19:49:47.505Z,83.38
2018-04-24T19:52:17.976Z,83.34
2018-04-24T19:54:55.090Z,83.60
2018-04-24T19:57:25.423Z,83.30
2018-04-24T19:59:56.166Z,84.52
2018-04-24T20:02:26.798Z,83.85
2018-04-24T20:04:57.337Z,85.00
2018-04-24T20:07:27.539Z,84.56
2018-04-24T20:09:57.831Z,85.33
2018-04-24T20:12:28.448Z,85.46
2018-04-24T20:14:58.950Z,85.85
2018-04-24T20:17:29.751Z,85.35
2018-04-24T20:19:59.966Z,85.53
2018-04-24T20:22:30.106Z,85.99
2018-04-24T20:25:00.638Z,85.43
2018-04-24T20:27:31.036Z,85.77
2018-04-24T20:30:02.431Z,85.96
2018-04-24T20:32:32.816Z,86.23
2018-04-24T20:35:03.220Z,86.09
2018-04-24T20:37:33.616Z,86.21
2018-04-24T20:40:04.341Z,86.39
2018-04-24T20:42:35.065Z,86.57
2018-04-24T20:45:05.239Z,86.00
2018-04-24T20:47:35.721Z,86.26
2018-04-24T20:50:08.484Z,86.16
2018-04-24T20:52:39.961Z,86.86
2018-04-24T20:55:10.462Z,86.74
2018-04-24T20:57:41.147Z,86.42
2018-04-24T21:00:12.036Z,87.25
2018-04-24T21:02:42.146Z,87.42
2018-04-24T21:05:12.516Z,88.49
2018-04-24T21:07:42.826Z,89.54
2018-04-24T21:10:14.379Z,89.70
2018-04-24T21:12:44.226Z,90.03
2018-04-24T21:15:13.890Z,89.79
2018-04-24T21:17:43.873Z,88.99
2018-04-24T21:20:14.220Z,89.25
2018-04-24T21:22:44.459Z,89.62
2018-04-24T21:25:17.816Z,90.08
2018-04-24T21:27:48.237Z,90.46
2018-04-24T21:30:18.588Z,90.28
2018-04-24T21:32:48.448Z,90.33
2018-04-24T21:35:18.449Z,90.40
2018-04-24T21:37:48.307Z,90.45
2018-04-24T21:40:18.588Z,90.43
2018-04-24T21:42:48.498Z,90.63
2018-04-24T21:45:18.330Z,90.78
2018-04-24T21:47:48.152Z,90.96
2018-04-24T21:50:18.325Z,90.77
2018-04-24T21:52:48.463Z,90.93
2018-04-24T21:55:18.337Z,90.87
2018-04-24T21:57:48.355Z,91.15
2018-04-24T22:00:19.167Z,91.08
2018-04-24T22:02:49.046Z,91.31
2018-04-24T22:05:18.939Z,91.11
2018-04-24T22:07:49.620Z,91.31
2018-04-24T22:10:19.353Z,90.90
2018-04-24T22:12:49.412Z,91.03
2018-04-24T22:15:19.553Z,90.84
2018-04-24T22:17:50.060Z,90.73
2018-04-24T22:20:20.062Z,90.59
2018-04-24T22:22:50.114Z,90.88
2018-04-24T22:25:20.632Z,90.80
2018-04-24T22:27:50.533Z,90.40
2018-04-24T22:30:21.004Z,90.37
2018-04-24T22:32:50.942Z,90.11
2018-04-24T22:35:20.912Z,90.11
2018-04-24T22:37:51.119Z,90.33
2018-04-24T22:40:21.149Z,90.57
2018-04-24T22:42:51.039Z,90.99
2018-04-24T22:45:21.029Z,91.12
2018-04-24T22:47:50.843Z,91.19
2018-04-24T22:50:21.392Z,91.11
2018-04-24T22:52:51.302Z,91.12
2018-04-24T22:55:21.245Z,91.11
2018-04-24T22:57:51.048Z,91.20
2018-04-24T23:00:20.988Z,91.55
2018-04-24T23:02:51.187Z,91.75
2018-04-24T23:05:21.589Z,91.88
2018-04-24T23:07:51.820Z,91.96
2018-04-24T23:10:33.148Z,91.97
2018-04-24T23:13:14.620Z,91.81
2018-04-24T23:15:56.214Z,91.95
2018-04-24T23:18:37.082Z,92.15
2018-04-24T23:21:05.682Z,92.31
2018-04-24T23:23:35.534Z,92.27
2018-04-24T23:26:06.065Z,92.06
2018-04-24T23:28:36.123Z,91.95
2018-04-24T23:31:06.083Z,91.96
2018-04-24T23:33:36.103Z,91.79
2018-04-24T23:36:06.216Z,91.72
2018-04-24T23:38:36.020Z,91.70
2018-04-24T23:41:06.118Z,91.72
2018-04-24T23:43:36.202Z,91.58
2018-04-24T23:46:06.280Z,91.60
2018-04-24T23:48:36.601Z,91.75
2018-04-24T23:51:06.638Z,91.96
2018-04-24T23:53:36.674Z,92.29
2018-04-24T23:56:06.791Z,92.54
2018-04-24T23:58:36.809Z,93.00
